Stanton, Minnesota
Current Conditions -  °F | °C
As of 2:53 AM on Thursday 23 Oct 2014 (Local Time) from KSYN Reporting Station
Overcast Overcast  
Wind Chill: 55°   Ceiling: 10000
Heat Index: 55°   Visibility: 10mi
Dew Point: 43°   Wind: 9mph
Humidity: 64%   Direction: 180°S
Pressure: 30.01"   Gusts: NA
Location:  44.3996°N, 92.9847°W
Report Text: KSYN 230753Z AUTO 18008KT 10SM SCT028 SCT050 OVC100 13/06 A3001 RMK AO2 T01270060
Loading
Personal Weather Stations






























Interactive Weather Map
Tropical Storm Tracking
New forecast layout! Learn more

10-Day Weather Forecast

Advertisements
Track Severe Weather on mobile